Time;durP1;ratioP1;P1;durP2;ratioP2;P2;SDS_P1;SDS_P2;PMS_P1;PMS_P2;Temp;Humidity;BMP_temperature;BMP_pressure;BME280_temperature;BME280_humidity;BME280_pressure;Samples;Min_cycle;Max_cycle;Signal;HPM_P1;HPM_P2
2023/04/24 00:00:17;;;;;;;3.30;3.10;;;;;;;;;;5074910;28;20402;-31
2023/04/24 00:02:46;;;;;;;3.20;3.00;;;;;;;;;;5074954;28;20454;-33
2023/04/24 00:05:13;;;;;;;3.42;3.25;;;;;;;;;;5074685;28;20048;-27
2023/04/24 00:07:40;;;;;;;3.33;3.13;;;;;;;;;;5074801;28;20448;-27
2023/04/24 00:10:06;;;;;;;3.60;3.40;;;;;;;;;;5074744;28;20029;-27
2023/04/24 00:12:32;;;;;;;3.30;3.10;;;;;;;;;;5074645;28;20067;-27
2023/04/24 00:14:59;;;;;;;3.92;3.72;;;;;;;;;;5074723;28;20388;-27
2023/04/24 00:17:25;;;;;;;2.90;2.80;;;;;;;;;;5074679;28;20025;-28
2023/04/24 00:19:51;;;;;;;4.72;3.25;;;;;;;;;;5074929;28;20032;-28
2023/04/24 00:22:18;;;;;;;3.08;2.90;;;;;;;;;;5074765;28;20029;-27
2023/04/24 00:24:44;;;;;;;4.32;4.13;;;;;;;;;;5074610;28;20021;-29
2023/04/24 00:27:10;;;;;;;3.35;3.15;;;;;;;;;;5074623;28;20051;-30
2023/04/24 00:29:36;;;;;;;3.50;3.30;;;;;;;;;;5074832;28;20490;-29
2023/04/24 00:32:02;;;;;;;3.63;3.40;;;;;;;;;;5074729;28;20097;-30
2023/04/24 00:34:28;;;;;;;3.25;3.05;;;;;;;;;;5074513;28;20079;-30
2023/04/24 00:36:55;;;;;;;3.65;3.45;;;;;;;;;;5074751;28;20067;-30
2023/04/24 00:39:21;;;;;;;3.95;3.75;;;;;;;;;;5074399;28;20036;-30
2023/04/24 00:41:48;;;;;;;3.70;3.50;;;;;;;;;;5074698;28;20035;-34
2023/04/24 00:44:14;;;;;;;3.70;3.50;;;;;;;;;;5074562;28;20032;-29
2023/04/24 00:46:40;;;;;;;3.58;3.38;;;;;;;;;;5074635;28;20048;-30
2023/04/24 00:49:06;;;;;;;4.05;3.85;;;;;;;;;;5074575;28;20043;-31
2023/04/24 00:51:34;;;;;;;3.55;3.35;;;;;;;;;;5075883;28;20496;-29
2023/04/24 00:54:00;;;;;;;3.78;3.55;;;;;;;;;;5078588;28;20036;-29
2023/04/24 00:56:27;;;;;;;3.47;3.28;;;;;;;;;;5078290;28;20050;-31
2023/04/24 00:58:53;;;;;;;3.33;3.13;;;;;;;;;;5078274;28;20029;-31
2023/04/24 01:01:22;;;;;;;3.38;3.28;;;;;;;;;;5079262;28;20025;-30
2023/04/24 01:03:52;;;;;;;3.45;3.25;;;;;;;;;;5078613;28;20029;-27
2023/04/24 01:06:19;;;;;;;3.75;3.55;;;;;;;;;;5078088;28;20383;-31
2023/04/24 01:08:46;;;;;;;3.80;3.50;;;;;;;;;;5078090;28;20048;-33
2023/04/24 01:11:12;;;;;;;3.63;3.42;;;;;;;;;;5078023;28;20107;-29
2023/04/24 01:13:38;;;;;;;3.67;3.47;;;;;;;;;;5077916;28;20028;-30
2023/04/24 01:16:05;;;;;;;3.33;3.13;;;;;;;;;;5077914;28;20099;-31
2023/04/24 01:18:32;;;;;;;3.78;3.58;;;;;;;;;;5077892;28;20024;-32
2023/04/24 01:20:58;;;;;;;4.47;3.50;;;;;;;;;;5060187;28;20096;-28
2023/04/24 01:23:24;;;;;;;3.50;3.30;;;;;;;;;;5077690;28;20358;-26
2023/04/24 01:25:51;;;;;;;3.60;3.40;;;;;;;;;;5078009;28;20098;-29
2023/04/24 01:28:17;;;;;;;3.70;3.50;;;;;;;;;;5078218;28;20108;-32
2023/04/24 01:30:44;;;;;;;3.67;3.47;;;;;;;;;;5077701;28;20074;-33
2023/04/24 01:33:10;;;;;;;3.20;3.00;;;;;;;;;;5078085;28;20040;-31
2023/04/24 01:35:37;;;;;;;3.97;3.78;;;;;;;;;;5077610;28;20028;-31
2023/04/24 01:38:03;;;;;;;3.35;3.10;;;;;;;;;;5077808;28;20029;-33
2023/04/24 01:40:29;;;;;;;3.00;2.90;;;;;;;;;;5077482;28;20021;-31
2023/04/24 01:42:55;;;;;;;3.50;3.30;;;;;;;;;;5077579;28;20341;-27
2023/04/24 01:45:22;;;;;;;3.78;3.58;;;;;;;;;;5077715;28;20089;-32
2023/04/24 01:47:48;;;;;;;3.22;3.03;;;;;;;;;;5077412;28;20408;-31
2023/04/24 01:50:15;;;;;;;3.30;3.10;;;;;;;;;;5077638;28;20025;-29
2023/04/24 01:52:41;;;;;;;4.00;3.70;;;;;;;;;;5077217;28;20027;-30
2023/04/24 01:55:07;;;;;;;4.82;4.43;;;;;;;;;;5077495;28;20317;-27
2023/04/24 01:57:34;;;;;;;3.60;3.40;;;;;;;;;;5077241;28;20020;-29
2023/04/24 02:00:00;;;;;;;3.30;3.10;;;;;;;;;;5077147;28;20108;-31
2023/04/24 02:02:29;;;;;;;3.63;3.42;;;;;;;;;;5076733;28;20110;-29
2023/04/24 02:04:55;;;;;;;4.03;3.80;;;;;;;;;;5077078;28;20124;-28
2023/04/24 02:07:22;;;;;;;3.90;3.70;;;;;;;;;;5077372;28;20376;-29
2023/04/24 02:09:49;;;;;;;3.63;3.42;;;;;;;;;;5076954;28;20045;-26
2023/04/24 02:12:17;;;;;;;3.90;3.60;;;;;;;;;;5076830;28;20024;-28
2023/04/24 02:14:43;;;;;;;3.95;3.65;;;;;;;;;;5076840;28;20035;-30
2023/04/24 02:17:09;;;;;;;3.75;3.50;;;;;;;;;;5077125;28;20020;-26
2023/04/24 02:19:36;;;;;;;4.20;3.90;;;;;;;;;;5077096;28;20103;-29
2023/04/24 02:22:02;;;;;;;4.00;3.70;;;;;;;;;;5076920;28;20089;-27
2023/04/24 02:24:28;;;;;;;3.75;3.53;;;;;;;;;;5076905;28;20119;-28
2023/04/24 02:26:54;;;;;;;3.90;3.67;;;;;;;;;;5058998;28;20013;-30
2023/04/24 02:29:20;;;;;;;3.70;3.50;;;;;;;;;;5076940;28;20017;-30
2023/04/24 02:31:46;;;;;;;4.03;3.72;;;;;;;;;;5076580;28;20033;-28
2023/04/24 02:34:12;;;;;;;3.40;3.20;;;;;;;;;;5076437;28;20052;-32
2023/04/24 02:36:39;;;;;;;4.30;4.00;;;;;;;;;;5076500;28;20021;-29
2023/04/24 02:39:05;;;;;;;3.95;3.75;;;;;;;;;;5076722;28;20036;-30
2023/04/24 02:41:32;;;;;;;3.40;3.20;;;;;;;;;;5076675;28;20039;-29
2023/04/24 02:43:58;;;;;;;4.40;4.10;;;;;;;;;;5076230;28;20070;-31
2023/04/24 02:46:25;;;;;;;3.75;3.45;;;;;;;;;;5076265;28;20063;-32
2023/04/24 02:48:51;;;;;;;4.38;4.07;;;;;;;;;;5076292;28;20355;-31
2023/04/24 02:51:17;;;;;;;4.30;3.95;;;;;;;;;;5076477;28;20056;-30
2023/04/24 02:53:43;;;;;;;4.28;3.97;;;;;;;;;;5076096;28;20142;-31
2023/04/24 02:56:12;;;;;;;3.55;3.35;;;;;;;;;;5076357;28;20024;-30
2023/04/24 02:58:38;;;;;;;3.65;3.47;;;;;;;;;;5076028;28;20032;-27
2023/04/24 03:01:04;;;;;;;4.45;4.15;;;;;;;;;;5076325;28;20028;-30
2023/04/24 03:03:30;;;;;;;4.00;3.80;;;;;;;;;;5076080;28;20040;-29
2023/04/24 03:05:57;;;;;;;3.97;3.78;;;;;;;;;;5075711;28;20063;-31
2023/04/24 03:08:23;;;;;;;3.45;3.25;;;;;;;;;;5076146;28;20309;-32
2023/04/24 03:10:49;;;;;;;4.40;4.00;;;;;;;;;;5075741;28;20017;-31
2023/04/24 03:13:16;;;;;;;4.53;4.22;;;;;;;;;;5075344;28;20162;-28
2023/04/24 03:15:42;;;;;;;3.55;3.35;;;;;;;;;;5075594;28;20032;-30
2023/04/24 03:18:08;;;;;;;3.72;3.53;;;;;;;;;;5075661;28;20363;-29
2023/04/24 03:20:36;;;;;;;4.13;3.83;;;;;;;;;;5075874;28;20025;-30
2023/04/24 03:23:02;;;;;;;3.85;3.65;;;;;;;;;;5075343;28;20089;-32
2023/04/24 03:25:28;;;;;;;3.92;3.63;;;;;;;;;;5057956;28;20059;-29
2023/04/24 03:27:55;;;;;;;4.05;3.85;;;;;;;;;;5075724;28;20392;-31
2023/04/24 03:30:21;;;;;;;3.97;3.67;;;;;;;;;;5075425;28;20024;-30
2023/04/24 03:32:47;;;;;;;3.88;3.67;;;;;;;;;;5075276;28;20082;-30
2023/04/24 03:35:14;;;;;;;4.30;4.03;;;;;;;;;;5075355;28;20107;-30
2023/04/24 03:37:40;;;;;;;3.88;3.67;;;;;;;;;;5075528;28;20059;-30
2023/04/24 03:40:06;;;;;;;4.05;3.85;;;;;;;;;;5075175;28;20050;-28
2023/04/24 03:42:33;;;;;;;3.45;3.15;;;;;;;;;;5075412;28;20040;-31
2023/04/24 03:44:59;;;;;;;4.45;4.15;;;;;;;;;;5075086;28;20347;-28
2023/04/24 03:47:25;;;;;;;3.53;3.33;;;;;;;;;;5057523;28;20016;-26
2023/04/24 03:49:52;;;;;;;3.65;3.45;;;;;;;;;;5075378;28;20028;-30
2023/04/24 03:52:18;;;;;;;3.65;3.45;;;;;;;;;;5075576;28;20029;-28
2023/04/24 03:54:44;;;;;;;3.70;3.50;;;;;;;;;;5075304;28;20099;-28
2023/04/24 03:57:10;;;;;;;3.97;3.78;;;;;;;;;;5075156;28;20493;-30
2023/04/24 03:59:36;;;;;;;4.40;4.10;;;;;;;;;;5075634;28;20456;-30
2023/04/24 04:02:02;;;;;;;3.83;3.53;;;;;;;;;;5074952;28;20365;-30
2023/04/24 04:04:28;;;;;;;4.07;3.88;;;;;;;;;;5074841;28;20028;-35
2023/04/24 04:06:54;;;;;;;3.83;3.53;;;;;;;;;;5074969;28;20031;-29
2023/04/24 04:09:20;;;;;;;3.95;3.65;;;;;;;;;;5074768;28;20021;-34
2023/04/24 04:11:47;;;;;;;4.65;4.35;;;;;;;;;;5074512;28;20029;-30
2023/04/24 04:14:13;;;;;;;4.20;3.90;;;;;;;;;;5074336;28;20051;-30
2023/04/24 04:16:39;;;;;;;3.97;3.78;;;;;;;;;;5074589;28;20098;-28
2023/04/24 04:19:05;;;;;;;3.47;3.28;;;;;;;;;;5074820;28;20112;-27
2023/04/24 04:21:31;;;;;;;3.92;3.63;;;;;;;;;;5056547;28;20032;-30
2023/04/24 04:23:58;;;;;;;4.15;3.85;;;;;;;;;;5074202;28;20085;-32
2023/04/24 04:26:25;;;;;;;4.03;3.83;;;;;;;;;;5057456;28;20025;-26
2023/04/24 04:28:52;;;;;;;4.07;3.78;;;;;;;;;;5074504;28;20031;-28
2023/04/24 04:31:19;;;;;;;4.20;3.42;;;;;;;;;;5074736;28;20037;-33
2023/04/24 04:33:45;;;;;;;4.60;3.53;;;;;;;;;;5074315;28;20024;-32
2023/04/24 04:36:11;;;;;;;4.03;3.72;;;;;;;;;;5074427;28;20386;-27
2023/04/24 04:38:38;;;;;;;3.38;3.17;;;;;;;;;;5074457;28;20358;-31
2023/04/24 04:41:04;;;;;;;3.42;3.22;;;;;;;;;;5074155;28;20032;-28
2023/04/24 04:43:30;;;;;;;5.60;3.78;;;;;;;;;;5056319;28;20052;-29
2023/04/24 04:45:58;;;;;;;5.18;4.00;;;;;;;;;;5073961;28;20028;-27
2023/04/24 04:48:24;;;;;;;4.03;3.65;;;;;;;;;;5074344;28;20109;-30
2023/04/24 04:50:50;;;;;;;5.03;3.67;;;;;;;;;;5074092;28;20439;-34
2023/04/24 04:53:16;;;;;;;4.03;3.72;;;;;;;;;;5074314;28;20098;-30
2023/04/24 04:55:43;;;;;;;3.50;3.30;;;;;;;;;;5073918;28;20028;-31
2023/04/24 04:58:09;;;;;;;3.67;3.47;;;;;;;;;;5073876;28;20464;-28
2023/04/24 05:00:37;;;;;;;4.60;3.75;;;;;;;;;;5073971;28;20028;-26
2023/04/24 05:03:03;;;;;;;3.67;3.38;;;;;;;;;;5073805;28;20070;-30
2023/04/24 05:05:29;;;;;;;5.13;3.25;;;;;;;;;;5073791;28;20472;-33
2023/04/24 05:07:56;;;;;;;3.88;3.58;;;;;;;;;;5073959;28;20032;-32
2023/04/24 05:10:22;;;;;;;3.38;3.17;;;;;;;;;;5074163;28;20032;-29
2023/04/24 05:12:49;;;;;;;4.22;3.92;;;;;;;;;;5073903;28;20420;-28
2023/04/24 05:15:15;;;;;;;3.42;3.22;;;;;;;;;;5073895;28;20055;-31
2023/04/24 05:17:41;;;;;;;3.85;3.60;;;;;;;;;;5073851;28;20029;-29
2023/04/24 05:20:09;;;;;;;4.05;3.72;;;;;;;;;;5073869;28;20028;-30
2023/04/24 05:22:35;;;;;;;3.80;3.60;;;;;;;;;;5073982;28;20036;-30
2023/04/24 05:25:02;;;;;;;8.32;3.60;;;;;;;;;;5073771;28;20506;-29
2023/04/24 05:27:28;;;;;;;3.50;3.30;;;;;;;;;;5073751;28;20078;-31
2023/04/24 05:29:55;;;;;;;3.72;3.47;;;;;;;;;;5056094;28;20032;-30
2023/04/24 05:32:21;;;;;;;3.35;3.15;;;;;;;;;;5073917;28;20031;-32
2023/04/24 05:34:47;;;;;;;3.60;3.40;;;;;;;;;;5073997;28;20028;-34
2023/04/24 05:37:13;;;;;;;3.40;3.20;;;;;;;;;;5074703;28;20025;-29
2023/04/24 05:39:40;;;;;;;4.30;3.33;;;;;;;;;;5076982;28;20048;-33
2023/04/24 05:42:07;;;;;;;3.75;3.55;;;;;;;;;;5077292;28;20040;-30
2023/04/24 05:44:33;;;;;;;3.92;3.63;;;;;;;;;;5077475;28;20325;-30
2023/04/24 05:47:00;;;;;;;4.22;3.83;;;;;;;;;;5077466;28;20021;-28
2023/04/24 05:49:26;;;;;;;3.30;3.00;;;;;;;;;;5077557;28;20360;-31
2023/04/24 05:51:52;;;;;;;3.65;3.40;;;;;;;;;;5077305;28;20119;-31
2023/04/24 05:54:18;;;;;;;3.10;2.90;;;;;;;;;;5077383;28;20029;-27
2023/04/24 05:56:45;;;;;;;3.67;3.47;;;;;;;;;;5077248;28;20039;-26
2023/04/24 05:59:11;;;;;;;4.07;3.67;;;;;;;;;;5077115;28;20020;-29
2023/04/24 06:04:13;;;;;;;3.72;3.40;;;;;;;;;;4649406;26;20109;-22
2023/04/24 06:06:40;;;;;;;3.75;3.45;;;;;;;;;;5016956;28;20030;-22
2023/04/24 06:09:06;;;;;;;3.33;3.13;;;;;;;;;;5016770;28;20034;-22
2023/04/24 06:11:32;;;;;;;3.35;3.10;;;;;;;;;;5016918;28;20022;-23
2023/04/24 06:13:58;;;;;;;4.20;3.17;;;;;;;;;;5016744;28;20032;-23
2023/04/24 06:16:24;;;;;;;6.90;3.65;;;;;;;;;;5016790;28;20064;-22
2023/04/24 06:18:51;;;;;;;4.32;3.70;;;;;;;;;;5017041;28;20034;-23
2023/04/24 06:21:17;;;;;;;3.60;3.40;;;;;;;;;;5017000;28;20033;-24
2023/04/24 06:23:43;;;;;;;4.13;3.35;;;;;;;;;;5017214;28;20157;-23
2023/04/24 06:26:09;;;;;;;3.20;3.00;;;;;;;;;;4999361;28;20022;-23
2023/04/24 06:28:36;;;;;;;3.50;3.20;;;;;;;;;;5016632;28;20018;-23
2023/04/24 06:31:02;;;;;;;3.65;3.45;;;;;;;;;;4999243;28;20095;-23
2023/04/24 06:33:28;;;;;;;3.85;3.55;;;;;;;;;;5016729;28;20085;-22
2023/04/24 06:35:54;;;;;;;3.30;3.10;;;;;;;;;;5016673;28;20022;-23
2023/04/24 06:38:21;;;;;;;3.65;3.35;;;;;;;;;;5016839;28;20029;-22
2023/04/24 06:40:47;;;;;;;3.47;3.22;;;;;;;;;;5016839;28;20356;-23
2023/04/24 06:43:14;;;;;;;6.05;3.05;;;;;;;;;;5016368;28;20092;-24
2023/04/24 06:45:40;;;;;;;4.30;3.90;;;;;;;;;;5016684;28;20040;-22
2023/04/24 06:48:06;;;;;;;3.72;3.50;;;;;;;;;;5015748;28;20026;-23
2023/04/24 06:50:32;;;;;;;5.78;3.30;;;;;;;;;;5015636;28;20028;-23
2023/04/24 06:52:59;;;;;;;3.35;3.15;;;;;;;;;;4982888;28;20026;-23
2023/04/24 06:55:25;;;;;;;4.40;3.25;;;;;;;;;;5016538;28;20022;-23
2023/04/24 06:57:51;;;;;;;3.17;2.80;;;;;;;;;;4998820;28;20041;-23
2023/04/24 07:00:17;;;;;;;6.63;3.55;;;;;;;;;;5016555;28;20088;-24
2023/04/24 07:02:43;;;;;;;6.40;3.53;;;;;;;;;;4998256;28;20113;-22
2023/04/24 07:05:10;;;;;;;5.05;2.95;;;;;;;;;;4998705;28;20022;-23
2023/04/24 07:07:37;;;;;;;8.10;3.13;;;;;;;;;;5016435;28;20025;-24
2023/04/24 07:10:04;;;;;;;8.45;3.45;;;;;;;;;;5016104;28;20318;-22
2023/04/24 07:12:31;;;;;;;6.07;3.05;;;;;;;;;;5015787;28;20482;-22
2023/04/24 07:14:57;;;;;;;3.70;3.40;;;;;;;;;;5016307;28;20449;-23
2023/04/24 07:17:23;;;;;;;8.35;4.40;;;;;;;;;;5015642;28;20037;-21
2023/04/24 07:19:49;;;;;;;4.10;3.90;;;;;;;;;;5016019;28;20026;-22
2023/04/24 07:22:16;;;;;;;7.07;3.35;;;;;;;;;;5015698;28;20026;-27
2023/04/24 07:24:44;;;;;;;5.07;3.13;;;;;;;;;;5015517;28;20048;-24
2023/04/24 07:27:10;;;;;;;3.58;2.97;;;;;;;;;;5015481;28;20029;-22
2023/04/24 07:29:36;;;;;;;11.68;3.53;;;;;;;;;;4998740;28;20186;-24
2023/04/24 07:32:03;;;;;;;4.65;3.97;;;;;;;;;;5015215;28;20034;-21
2023/04/24 07:34:29;;;;;;;4.53;3.20;;;;;;;;;;5015628;28;20100;-23
2023/04/24 07:36:55;;;;;;;7.07;3.30;;;;;;;;;;5015395;28;20034;-22
2023/04/24 07:39:22;;;;;;;6.47;3.85;;;;;;;;;;4997884;28;20108;-23
2023/04/24 07:41:48;;;;;;;4.82;3.40;;;;;;;;;;4997854;28;20026;-23
2023/04/24 07:44:14;;;;;;;8.30;2.83;;;;;;;;;;5015185;28;20037;-22
2023/04/24 07:46:41;;;;;;;3.50;2.95;;;;;;;;;;5015731;28;20026;-23
2023/04/24 07:49:07;;;;;;;4.00;2.97;;;;;;;;;;4997847;28;20026;-22
2023/04/24 07:51:37;;;;;;;5.53;3.10;;;;;;;;;;5015286;28;20037;-22
2023/04/24 07:54:05;;;;;;;7.40;3.17;;;;;;;;;;5015177;28;20026;-23
2023/04/24 07:56:31;;;;;;;3.55;3.10;;;;;;;;;;5015038;28;20029;-22
2023/04/24 07:58:57;;;;;;;5.20;3.40;;;;;;;;;;5014975;28;20419;-23
2023/04/24 08:01:23;;;;;;;4.28;3.00;;;;;;;;;;5014701;28;20077;-22
2023/04/24 08:03:51;;;;;;;3.78;3.45;;;;;;;;;;5014595;28;20074;-23
2023/04/24 08:06:17;;;;;;;6.47;3.53;;;;;;;;;;5015196;28;20017;-23
2023/04/24 08:08:43;;;;;;;3.63;3.15;;;;;;;;;;5015116;28;20021;-23
2023/04/24 08:11:09;;;;;;;4.55;3.35;;;;;;;;;;4997592;28;20456;-23
2023/04/24 08:13:36;;;;;;;6.40;4.03;;;;;;;;;;5014818;28;20053;-23
2023/04/24 08:16:02;;;;;;;10.07;3.40;;;;;;;;;;5014842;28;20409;-23
2023/04/24 08:18:28;;;;;;;3.90;2.92;;;;;;;;;;5014786;28;20429;-24
2023/04/24 08:20:54;;;;;;;3.65;3.33;;;;;;;;;;5014709;28;20053;-22
2023/04/24 08:23:21;;;;;;;3.58;3.28;;;;;;;;;;5014838;28;20332;-22
2023/04/24 08:25:48;;;;;;;6.93;3.35;;;;;;;;;;5014607;28;20022;-24
2023/04/24 08:28:19;;;;;;;6.25;3.22;;;;;;;;;;5014652;28;20433;-23
2023/04/24 08:30:46;;;;;;;6.55;3.10;;;;;;;;;;5014991;28;20022;-23
2023/04/24 08:33:12;;;;;;;8.43;3.17;;;;;;;;;;5014798;28;20189;-23
2023/04/24 08:35:39;;;;;;;10.88;3.85;;;;;;;;;;5014674;28;20026;-23
2023/04/24 08:38:05;;;;;;;5.40;3.15;;;;;;;;;;5014726;28;20061;-22
2023/04/24 08:40:33;;;;;;;5.80;3.63;;;;;;;;;;5014794;28;20064;-22
2023/04/24 08:43:00;;;;;;;7.30;3.63;;;;;;;;;;4996976;28;20361;-23
2023/04/24 08:45:26;;;;;;;5.78;4.30;;;;;;;;;;5014841;28;20026;-23
2023/04/24 08:47:55;;;;;;;9.38;3.33;;;;;;;;;;5014728;28;20093;-23
2023/04/24 08:50:22;;;;;;;6.88;3.70;;;;;;;;;;5014556;28;20025;-22
2023/04/24 08:52:50;;;;;;;6.85;3.45;;;;;;;;;;5014640;28;20030;-22
2023/04/24 08:55:18;;;;;;;5.82;3.40;;;;;;;;;;4997138;28;20041;-24
2023/04/24 08:57:45;;;;;;;6.95;3.25;;;;;;;;;;5014687;28;20053;-23
2023/04/24 09:00:12;;;;;;;5.63;4.18;;;;;;;;;;5014426;28;20026;-22
2023/04/24 09:02:40;;;;;;;4.85;3.92;;;;;;;;;;5014096;28;20108;-23
2023/04/24 09:05:07;;;;;;;4.32;3.90;;;;;;;;;;5014606;28;20113;-23
2023/04/24 09:07:34;;;;;;;3.25;3.05;;;;;;;;;;4997088;28;20033;-23
2023/04/24 09:10:01;;;;;;;3.60;3.30;;;;;;;;;;5014244;28;20045;-22
2023/04/24 09:12:27;;;;;;;3.97;3.42;;;;;;;;;;5015547;28;20036;-23
2023/04/24 09:14:55;;;;;;;4.43;3.30;;;;;;;;;;5018172;28;20026;-22
2023/04/24 09:17:22;;;;;;;12.07;3.58;;;;;;;;;;5018090;28;20026;-22
2023/04/24 09:19:49;;;;;;;6.43;3.38;;;;;;;;;;5018339;28;20313;-23
2023/04/24 09:22:15;;;;;;;7.90;4.30;;;;;;;;;;5017835;28;20022;-22
2023/04/24 09:24:42;;;;;;;4.88;3.63;;;;;;;;;;5017716;28;20172;-21
2023/04/24 09:27:08;;;;;;;7.40;3.60;;;;;;;;;;5017748;28;20098;-23
2023/04/24 09:29:34;;;;;;;5.32;3.63;;;;;;;;;;5017789;28;20065;-22
2023/04/24 09:32:18;;;;;;;5.55;3.38;;;;;;;;;;5017812;28;20045;-21
2023/04/24 09:34:47;;;;;;;5.72;3.22;;;;;;;;;;5017974;28;20025;-23
2023/04/24 09:37:27;;;;;;;3.83;3.47;;;;;;;;;;5017571;28;20445;-23
2023/04/24 09:40:12;;;;;;;3.58;3.15;;;;;;;;;;5017839;28;20381;-22
2023/04/24 09:42:39;;;;;;;10.27;3.85;;;;;;;;;;5017338;28;20038;-22
2023/04/24 09:45:10;;;;;;;5.38;3.30;;;;;;;;;;5017364;28;20153;-21
2023/04/24 09:47:36;;;;;;;4.95;3.53;;;;;;;;;;5017713;28;20022;-23
2023/04/24 09:50:23;;;;;;;3.00;2.80;;;;;;;;;;5017432;28;20356;-24
2023/04/24 09:53:01;;;;;;;5.47;3.30;;;;;;;;;;5017406;28;20030;-23
2023/04/24 09:55:27;;;;;;;4.55;3.53;;;;;;;;;;5017717;28;20032;-24
2023/04/24 09:58:01;;;;;;;6.78;3.75;;;;;;;;;;5017401;28;20025;-23
2023/04/24 10:00:28;;;;;;;4.60;3.28;;;;;;;;;;5017366;28;20022;-23
2023/04/24 10:02:57;;;;;;;5.68;3.17;;;;;;;;;;4999467;28;20064;-23
2023/04/24 10:05:25;;;;;;;6.13;3.97;;;;;;;;;;5017331;28;20087;-25
2023/04/24 10:07:51;;;;;;;4.18;3.75;;;;;;;;;;5017065;28;20028;-23
2023/04/24 10:10:17;;;;;;;7.68;3.50;;;;;;;;;;5017040;28;20026;-23
2023/04/24 10:12:44;;;;;;;4.60;3.88;;;;;;;;;;5016802;28;20022;-22
2023/04/24 10:15:12;;;;;;;8.93;3.45;;;;;;;;;;5017074;28;20361;-23
2023/04/24 10:17:39;;;;;;;4.68;4.38;;;;;;;;;;5016813;28;20026;-23
2023/04/24 10:20:06;;;;;;;6.63;4.10;;;;;;;;;;5016959;28;20022;-23
2023/04/24 10:22:33;;;;;;;4.07;3.75;;;;;;;;;;5016887;28;20018;-23
2023/04/24 10:24:59;;;;;;;7.03;3.92;;;;;;;;;;5016608;28;20100;-23
2023/04/24 10:27:26;;;;;;;6.95;3.83;;;;;;;;;;5016508;28;20022;-24
2023/04/24 10:29:53;;;;;;;3.03;2.80;;;;;;;;;;5016541;28;20078;-23
2023/04/24 10:32:20;;;;;;;5.38;3.80;;;;;;;;;;5016583;28;20022;-25
2023/04/24 10:34:46;;;;;;;5.80;4.00;;;;;;;;;;5016589;28;20033;-25
2023/04/24 10:37:13;;;;;;;4.90;3.17;;;;;;;;;;5016620;28;20389;-24
2023/04/24 10:39:40;;;;;;;7.68;3.75;;;;;;;;;;5016714;28;20309;-24
2023/04/24 10:42:16;;;;;;;6.57;3.90;;;;;;;;;;4999486;28;20034;-23
2023/04/24 10:44:42;;;;;;;6.15;3.53;;;;;;;;;;5016679;28;20025;-23
2023/04/24 10:47:14;;;;;;;9.20;4.07;;;;;;;;;;4999179;28;20025;-24
2023/04/24 10:49:40;;;;;;;8.77;3.85;;;;;;;;;;5017294;28;20084;-22
2023/04/24 10:52:06;;;;;;;4.30;3.90;;;;;;;;;;5016183;28;20057;-22
2023/04/24 10:54:36;;;;;;;4.68;3.83;;;;;;;;;;5016417;28;20448;-23
2023/04/24 10:57:24;;;;;;;4.45;4.05;;;;;;;;;;5016737;28;20030;-23
2023/04/24 10:59:51;;;;;;;7.38;3.28;;;;;;;;;;5016371;28;20025;-21
2023/04/24 11:02:18;;;;;;;4.00;3.60;;;;;;;;;;5016014;28;20084;-22
2023/04/24 11:04:45;;;;;;;8.65;3.08;;;;;;;;;;5016261;28;20037;-24
2023/04/24 11:07:12;;;;;;;3.40;2.80;;;;;;;;;;5016296;28;20360;-22
2023/04/24 11:09:40;;;;;;;5.05;3.55;;;;;;;;;;5015971;28;20017;-23
2023/04/24 11:12:11;;;;;;;6.13;3.67;;;;;;;;;;5016482;28;20052;-23
2023/04/24 11:14:56;;;;;;;7.60;3.40;;;;;;;;;;5015963;28;20472;-22
2023/04/24 11:17:37;;;;;;;5.32;3.58;;;;;;;;;;5015934;28;20034;-25
2023/04/24 11:20:04;;;;;;;;;;;;;;;;;;5016364;28;20092;-22
2023/04/24 11:22:34;;;;;;;8.80;3.40;;;;;;;;;;5015791;28;19910;-24
2023/04/24 11:25:04;;;;;;;9.00;4.00;;;;;;;;;;5015613;28;20025;-23
2023/04/24 11:27:39;;;;;;;8.15;3.40;;;;;;;;;;5015742;28;20021;-23
2023/04/24 11:30:06;;;;;;;8.27;3.42;;;;;;;;;;5015755;28;20068;-23
2023/04/24 11:32:36;;;;;;;3.45;3.15;;;;;;;;;;5015460;28;20071;-24
2023/04/24 11:35:06;;;;;;;11.63;3.53;;;;;;;;;;4997535;28;20033;-22
2023/04/24 11:37:37;;;;;;;7.47;4.82;;;;;;;;;;5016166;28;20022;-22
2023/04/24 11:40:04;;;;;;;5.28;3.28;;;;;;;;;;5015737;28;20026;-22
2023/04/24 11:42:34;;;;;;;5.03;3.00;;;;;;;;;;5015627;28;20021;-23
2023/04/24 11:45:01;;;;;;;5.32;3.42;;;;;;;;;;5015681;28;20177;-22
2023/04/24 11:47:33;;;;;;;3.70;3.33;;;;;;;;;;5015281;28;20467;-23
2023/04/24 11:50:00;;;;;;;5.72;3.30;;;;;;;;;;5015193;28;20029;-22
2023/04/24 11:52:26;;;;;;;6.40;3.78;;;;;;;;;;5015473;28;20021;-23
2023/04/24 11:54:53;;;;;;;5.78;3.22;;;;;;;;;;5015170;28;20032;-23
2023/04/24 11:57:20;;;;;;;6.93;4.10;;;;;;;;;;5015651;28;20033;-23
2023/04/24 11:59:46;;;;;;;7.18;3.05;;;;;;;;;;5015111;28;20029;-23
2023/04/24 12:02:22;;;;;;;4.75;3.30;;;;;;;;;;5014753;28;20026;-23
2023/04/24 12:04:49;;;;;;;8.98;3.20;;;;;;;;;;5014893;28;20095;-23
2023/04/24 12:07:15;;;;;;;16.00;5.60;;;;;;;;;;5014929;28;20022;-23
2023/04/24 12:09:45;;;;;;;8.73;3.72;;;;;;;;;;5014859;28;20026;-23
2023/04/24 12:12:12;;;;;;;3.42;3.05;;;;;;;;;;5014716;28;20025;-24
2023/04/24 12:14:53;;;;;;;3.65;3.33;;;;;;;;;;5015066;28;20030;-23
2023/04/24 12:17:24;;;;;;;7.78;3.53;;;;;;;;;;5014825;28;20101;-23
2023/04/24 12:19:51;;;;;;;5.45;3.95;;;;;;;;;;4997537;28;20071;-23
2023/04/24 12:22:17;;;;;;;3.35;3.00;;;;;;;;;;5014783;28;20057;-23
2023/04/24 12:24:58;;;;;;;5.15;3.58;;;;;;;;;;5014850;28;20033;-22
2023/04/24 12:27:24;;;;;;;7.85;3.45;;;;;;;;;;5015312;28;20341;-24
2023/04/24 12:29:57;;;;;;;4.10;3.70;;;;;;;;;;5014708;28;20026;-23
2023/04/24 12:32:24;;;;;;;3.95;3.30;;;;;;;;;;5014613;28;20101;-24
2023/04/24 12:34:51;;;;;;;3.90;3.40;;;;;;;;;;5014967;28;20346;-24
2023/04/24 12:37:18;;;;;;;7.45;4.15;;;;;;;;;;5014668;28;20032;-23
2023/04/24 12:40:00;;;;;;;9.70;4.35;;;;;;;;;;5014594;28;20065;-24
2023/04/24 12:42:27;;;;;;;4.43;3.28;;;;;;;;;;4997155;28;20030;-24
2023/04/24 12:44:56;;;;;;;4.13;3.58;;;;;;;;;;5015008;28;20038;-22
2023/04/24 12:47:22;;;;;;;6.25;4.05;;;;;;;;;;5015953;28;20084;-24
2023/04/24 12:49:50;;;;;;;4.07;3.63;;;;;;;;;;5018860;28;20349;-23
2023/04/24 12:52:17;;;;;;;7.43;2.83;;;;;;;;;;5019015;28;20022;-24
2023/04/24 12:54:43;;;;;;;9.88;4.07;;;;;;;;;;5018782;28;20037;-23
2023/04/24 12:57:10;;;;;;;5.97;4.20;;;;;;;;;;5018396;28;20037;-24
2023/04/24 12:59:36;;;;;;;6.63;3.40;;;;;;;;;;5018883;28;20352;-24
2023/04/24 13:02:02;;;;;;;6.00;3.63;;;;;;;;;;5018163;28;20026;-22
2023/04/24 13:04:28;;;;;;;7.70;3.30;;;;;;;;;;5018260;28;20037;-22
2023/04/24 13:06:54;;;;;;;9.05;4.57;;;;;;;;;;5018271;28;20123;-24
2023/04/24 13:09:20;;;;;;;5.97;3.35;;;;;;;;;;5000917;28;20053;-24
2023/04/24 13:11:47;;;;;;;3.88;3.28;;;;;;;;;;5018453;28;20445;-23
2023/04/24 13:14:13;;;;;;;11.55;3.83;;;;;;;;;;5018141;28;20061;-22
2023/04/24 13:16:39;;;;;;;4.32;3.20;;;;;;;;;;5018522;28;20026;-23
2023/04/24 13:19:05;;;;;;;8.32;4.10;;;;;;;;;;5017923;28;20025;-22
2023/04/24 13:21:31;;;;;;;9.32;4.35;;;;;;;;;;5018023;28;20030;-22
2023/04/24 13:23:57;;;;;;;7.95;3.70;;;;;;;;;;5017879;28;20361;-23
2023/04/24 13:26:23;;;;;;;7.43;4.00;;;;;;;;;;5018256;28;20026;-23
2023/04/24 13:28:50;;;;;;;5.10;3.22;;;;;;;;;;5017939;28;20033;-30
2023/04/24 13:31:16;;;;;;;15.68;5.22;;;;;;;;;;5017976;28;20029;-23
2023/04/24 13:33:43;;;;;;;12.85;4.47;;;;;;;;;;5017890;28;20398;-23
2023/04/24 13:36:09;;;;;;;5.70;3.55;;;;;;;;;;5017566;28;20030;-23
2023/04/24 13:38:35;;;;;;;13.93;3.58;;;;;;;;;;5017622;28;20145;-23
2023/04/24 13:41:01;;;;;;;8.63;4.28;;;;;;;;;;5017518;28;20100;-23
2023/04/24 13:43:27;;;;;;;5.43;3.17;;;;;;;;;;5017531;28;20037;-23
2023/04/24 13:45:53;;;;;;;6.55;3.47;;;;;;;;;;5017819;28;20348;-22
2023/04/24 13:48:20;;;;;;;4.97;3.40;;;;;;;;;;5017771;28;20026;-23
2023/04/24 13:50:48;;;;;;;11.07;3.50;;;;;;;;;;5017643;28;20018;-23
2023/04/24 13:53:14;;;;;;;6.78;3.45;;;;;;;;;;5017343;28;20112;-22
2023/04/24 13:55:40;;;;;;;6.75;3.72;;;;;;;;;;5017287;28;20029;-28
2023/04/24 13:58:07;;;;;;;11.05;3.42;;;;;;;;;;5016930;28;20471;-23
2023/04/24 14:00:33;;;;;;;4.97;2.75;;;;;;;;;;5017363;28;20030;-23
2023/04/24 14:03:00;;;;;;;5.60;3.13;;;;;;;;;;5017328;28;20108;-24
2023/04/24 14:05:26;;;;;;;4.95;3.83;;;;;;;;;;5017336;28;20029;-24
2023/04/24 14:07:52;;;;;;;8.50;3.45;;;;;;;;;;5017752;28;20046;-23
2023/04/24 14:10:18;;;;;;;7.15;3.35;;;;;;;;;;5017199;28;20026;-24
2023/04/24 14:12:45;;;;;;;6.82;3.20;;;;;;;;;;4999725;28;20033;-22
2023/04/24 14:15:13;;;;;;;4.22;3.65;;;;;;;;;;5017152;28;20030;-23
2023/04/24 14:17:39;;;;;;;4.53;3.53;;;;;;;;;;5017119;28;20526;-23
2023/04/24 14:20:06;;;;;;;9.98;3.83;;;;;;;;;;5016956;28;20097;-23
2023/04/24 14:22:33;;;;;;;9.73;2.97;;;;;;;;;;5017106;28;20026;-22
2023/04/24 14:24:59;;;;;;;8.35;3.38;;;;;;;;;;5017120;28;20036;-23
2023/04/24 14:27:25;;;;;;;5.90;3.30;;;;;;;;;;5016926;28;20495;-23
2023/04/24 14:29:52;;;;;;;10.30;3.50;;;;;;;;;;5017020;28;20026;-22
2023/04/24 14:32:19;;;;;;;7.43;3.28;;;;;;;;;;5016974;28;20025;-24
2023/04/24 14:34:45;;;;;;;9.43;3.80;;;;;;;;;;5017073;28;20030;-23
2023/04/24 14:37:11;;;;;;;9.20;3.50;;;;;;;;;;5016635;28;20034;-23
2023/04/24 14:39:37;;;;;;;12.70;3.72;;;;;;;;;;5016740;28;20092;-22
2023/04/24 14:42:03;;;;;;;7.45;3.30;;;;;;;;;;5016495;28;20029;-22
2023/04/24 14:44:29;;;;;;;13.68;4.00;;;;;;;;;;5017072;28;20376;-20